sensor_id;sensor_type;location;lat;lon;timestamp;pressure;altitude;pressure_sealevel;temperature;humidity
54556;BME280;57291;37.520;15.106;2023-05-29T00:00:31;100812.25;;;19.09;98.46
54556;BME280;57291;37.520;15.106;2023-05-29T00:02:58;100809.03;;;19.07;98.82
54556;BME280;57291;37.520;15.106;2023-05-29T00:05:26;100805.13;;;19.08;98.39
54556;BME280;57291;37.520;15.106;2023-05-29T00:07:53;100804.31;;;19.07;98.42
54556;BME280;57291;37.520;15.106;2023-05-29T00:10:23;100807.53;;;19.09;98.20
54556;BME280;57291;37.520;15.106;2023-05-29T00:12:50;100813.03;;;19.09;97.30
54556;BME280;57291;37.520;15.106;2023-05-29T00:15:17;100811.31;;;19.05;97.25
54556;BME280;57291;37.520;15.106;2023-05-29T00:17:44;100803.22;;;18.96;97.58
54556;BME280;57291;37.520;15.106;2023-05-29T00:20:12;100791.28;;;18.92;98.67
54556;BME280;57291;37.520;15.106;2023-05-29T00:22:39;100798.06;;;18.94;99.07
54556;BME280;57291;37.520;15.106;2023-05-29T00:25:07;100799.31;;;18.97;98.95
54556;BME280;57291;37.520;15.106;2023-05-29T00:27:35;100800.00;;;18.94;98.98
54556;BME280;57291;37.520;15.106;2023-05-29T00:30:03;100801.06;;;18.89;99.47
54556;BME280;57291;37.520;15.106;2023-05-29T00:32:30;100797.28;;;18.82;100.00
54556;BME280;57291;37.520;15.106;2023-05-29T00:34:58;100796.66;;;18.72;100.00
54556;BME280;57291;37.520;15.106;2023-05-29T00:37:26;100789.19;;;18.73;100.00
54556;BME280;57291;37.520;15.106;2023-05-29T00:39:56;100795.25;;;18.79;100.00
54556;BME280;57291;37.520;15.106;2023-05-29T00:42:23;100790.09;;;18.77;100.00
54556;BME280;57291;37.520;15.106;2023-05-29T00:44:52;100798.59;;;18.72;100.00
54556;BME280;57291;37.520;15.106;2023-05-29T00:47:19;100792.94;;;18.68;100.00
54556;BME280;57291;37.520;15.106;2023-05-29T00:49:47;100787.44;;;18.68;100.00
54556;BME280;57291;37.520;15.106;2023-05-29T00:52:18;100796.97;;;18.71;100.00
54556;BME280;57291;37.520;15.106;2023-05-29T00:54:46;100795.13;;;18.75;100.00
54556;BME280;57291;37.520;15.106;2023-05-29T00:57:14;100801.09;;;18.77;100.00
54556;BME280;57291;37.520;15.106;2023-05-29T00:59:44;100795.38;;;18.82;100.00
54556;BME280;57291;37.520;15.106;2023-05-29T01:02:16;100798.13;;;18.82;100.00
54556;BME280;57291;37.520;15.106;2023-05-29T01:04:44;100796.97;;;18.83;100.00
54556;BME280;57291;37.520;15.106;2023-05-29T01:07:12;100780.69;;;18.78;100.00
54556;BME280;57291;37.520;15.106;2023-05-29T01:09:41;100774.47;;;18.69;98.88
54556;BME280;57291;37.520;15.106;2023-05-29T01:12:38;100783.88;;;18.68;95.34
54556;BME280;57291;37.520;15.106;2023-05-29T01:18:09;100781.03;;;18.64;95.87
54556;BME280;57291;37.520;15.106;2023-05-29T01:20:50;100780.34;;;18.67;96.94
54556;BME280;57291;37.520;15.106;2023-05-29T01:23:52;100778.38;;;18.68;97.89
54556;BME280;57291;37.520;15.106;2023-05-29T01:29:26;100780.13;;;18.72;100.00
54556;BME280;57291;37.520;15.106;2023-05-29T01:31:55;100783.69;;;18.73;100.00
54556;BME280;57291;37.520;15.106;2023-05-29T01:34:23;100779.19;;;18.68;100.00
54556;BME280;57291;37.520;15.106;2023-05-29T01:36:50;100781.84;;;18.65;98.85
54556;BME280;57291;37.520;15.106;2023-05-29T01:39:17;100771.63;;;18.65;97.30
54556;BME280;57291;37.520;15.106;2023-05-29T01:41:47;100768.06;;;18.65;96.57
54556;BME280;57291;37.520;15.106;2023-05-29T01:44:15;100771.50;;;18.62;96.80
54556;BME280;57291;37.520;15.106;2023-05-29T01:46:46;100771.09;;;18.60;95.63
54556;BME280;57291;37.520;15.106;2023-05-29T01:49:15;100780.03;;;18.57;94.87
54556;BME280;57291;37.520;15.106;2023-05-29T01:51:43;100772.00;;;18.51;95.23
54556;BME280;57291;37.520;15.106;2023-05-29T01:54:11;100773.97;;;18.51;95.10
54556;BME280;57291;37.520;15.106;2023-05-29T01:56:40;100770.03;;;18.52;95.63
54556;BME280;57291;37.520;15.106;2023-05-29T01:59:07;100762.63;;;18.52;95.37
54556;BME280;57291;37.520;15.106;2023-05-29T02:01:35;100768.34;;;18.47;94.53
54556;BME280;57291;37.520;15.106;2023-05-29T02:04:05;100762.84;;;18.47;94.46
54556;BME280;57291;37.520;15.106;2023-05-29T02:06:32;100764.00;;;18.46;94.61
54556;BME280;57291;37.520;15.106;2023-05-29T02:09:04;100765.50;;;18.44;94.72
54556;BME280;57291;37.520;15.106;2023-05-29T02:11:33;100751.75;;;18.44;94.57
54556;BME280;57291;37.520;15.106;2023-05-29T02:14:00;100756.09;;;18.45;94.48
54556;BME280;57291;37.520;15.106;2023-05-29T02:16:29;100755.28;;;18.44;94.52
54556;BME280;57291;37.520;15.106;2023-05-29T02:19:01;100754.50;;;18.44;94.45
54556;BME280;57291;37.520;15.106;2023-05-29T02:21:29;100746.56;;;18.42;94.67
54556;BME280;57291;37.520;15.106;2023-05-29T02:23:56;100749.78;;;18.44;94.86
54556;BME280;57291;37.520;15.106;2023-05-29T02:26:23;100744.75;;;18.46;95.13
54556;BME280;57291;37.520;15.106;2023-05-29T02:28:50;100747.94;;;18.48;94.86
54556;BME280;57291;37.520;15.106;2023-05-29T02:31:17;100746.09;;;18.52;94.11
54556;BME280;57291;37.520;15.106;2023-05-29T02:33:44;100758.25;;;18.51;93.10
54556;BME280;57291;37.520;15.106;2023-05-29T02:36:14;100758.72;;;18.54;93.19
54556;BME280;57291;37.520;15.106;2023-05-29T02:38:43;100747.81;;;18.57;92.69
54556;BME280;57291;37.520;15.106;2023-05-29T02:41:10;100744.34;;;18.60;92.56
54556;BME280;57291;37.520;15.106;2023-05-29T02:43:37;100753.41;;;18.61;92.35
54556;BME280;57291;37.520;15.106;2023-05-29T02:46:05;100749.50;;;18.62;92.35
54556;BME280;57291;37.520;15.106;2023-05-29T02:48:33;100754.56;;;18.60;92.45
54556;BME280;57291;37.520;15.106;2023-05-29T02:51:02;100750.19;;;18.59;92.74
54556;BME280;57291;37.520;15.106;2023-05-29T02:53:31;100749.41;;;18.58;92.46
54556;BME280;57291;37.520;15.106;2023-05-29T02:55:58;100747.81;;;18.57;92.16
54556;BME280;57291;37.520;15.106;2023-05-29T02:58:25;100744.59;;;18.55;91.60
54556;BME280;57291;37.520;15.106;2023-05-29T03:00:54;100739.69;;;18.48;91.08
54556;BME280;57291;37.520;15.106;2023-05-29T03:03:21;100751.38;;;18.45;91.21
54556;BME280;57291;37.520;15.106;2023-05-29T03:05:48;100745.06;;;18.45;91.12
54556;BME280;57291;37.520;15.106;2023-05-29T03:08:15;100740.72;;;18.44;90.54
54556;BME280;57291;37.520;15.106;2023-05-29T03:10:42;100751.28;;;18.42;89.80
54556;BME280;57291;37.520;15.106;2023-05-29T03:13:10;100754.38;;;18.40;88.91
54556;BME280;57291;37.520;15.106;2023-05-29T03:15:52;100749.56;;;18.37;88.43
54556;BME280;57291;37.520;15.106;2023-05-29T03:18:28;100750.28;;;18.34;87.58
54556;BME280;57291;37.520;15.106;2023-05-29T03:20:56;100755.78;;;18.34;86.48
54556;BME280;57291;37.520;15.106;2023-05-29T03:23:26;100756.47;;;18.31;86.23
54556;BME280;57291;37.520;15.106;2023-05-29T03:25:54;100754.19;;;18.33;86.10
54556;BME280;57291;37.520;15.106;2023-05-29T03:28:22;100764.34;;;18.33;84.92
54556;BME280;57291;37.520;15.106;2023-05-29T03:30:51;100760.38;;;18.30;85.25
54556;BME280;57291;37.520;15.106;2023-05-29T03:33:21;100763.34;;;18.25;83.32
54556;BME280;57291;37.520;15.106;2023-05-29T03:36:11;100766.47;;;18.23;83.09
54556;BME280;57291;37.520;15.106;2023-05-29T03:38:39;100761.28;;;18.22;82.97
54556;BME280;57291;37.520;15.106;2023-05-29T03:41:06;100763.94;;;18.18;82.67
54556;BME280;57291;37.520;15.106;2023-05-29T03:43:34;100760.38;;;18.18;83.38
54556;BME280;57291;37.520;15.106;2023-05-29T03:46:01;100763.94;;;18.18;83.04
54556;BME280;57291;37.520;15.106;2023-05-29T03:48:30;100770.22;;;18.19;83.15
54556;BME280;57291;37.520;15.106;2023-05-29T03:51:01;100772.19;;;18.18;81.42
54556;BME280;57291;37.520;15.106;2023-05-29T03:53:33;100774.25;;;18.21;80.08
54556;BME280;57291;37.520;15.106;2023-05-29T03:56:01;100780.53;;;18.22;80.39
54556;BME280;57291;37.520;15.106;2023-05-29T03:58:28;100782.16;;;18.23;80.72
54556;BME280;57291;37.520;15.106;2023-05-29T04:00:57;100783.66;;;18.20;81.27
54556;BME280;57291;37.520;15.106;2023-05-29T04:03:27;100780.31;;;18.27;81.60
54556;BME280;57291;37.520;15.106;2023-05-29T04:05:57;100776.50;;;18.32;82.33
54556;BME280;57291;37.520;15.106;2023-05-29T04:08:25;100775.94;;;18.38;82.83
54556;BME280;57291;37.520;15.106;2023-05-29T04:10:55;100775.34;;;18.45;82.80
54556;BME280;57291;37.520;15.106;2023-05-29T04:13:22;100770.75;;;18.49;82.68
54556;BME280;57291;37.520;15.106;2023-05-29T04:15:49;100774.44;;;18.53;82.85
54556;BME280;57291;37.520;15.106;2023-05-29T04:18:21;100780.94;;;18.61;82.54
54556;BME280;57291;37.520;15.106;2023-05-29T04:20:48;100775.53;;;18.64;82.43
54556;BME280;57291;37.520;15.106;2023-05-29T04:23:29;100781.03;;;18.64;82.07
54556;BME280;57291;37.520;15.106;2023-05-29T04:25:57;100780.25;;;18.64;82.93
54556;BME280;57291;37.520;15.106;2023-05-29T04:28:26;100780.25;;;18.76;82.84
54556;BME280;57291;37.520;15.106;2023-05-29T04:30:54;100784.00;;;18.84;82.57
54556;BME280;57291;37.520;15.106;2023-05-29T04:33:25;100782.69;;;18.93;82.32
54556;BME280;57291;37.520;15.106;2023-05-29T04:35:52;100782.19;;;19.04;81.83
54556;BME280;57291;37.520;15.106;2023-05-29T04:38:21;100783.28;;;19.15;81.21
54556;BME280;57291;37.520;15.106;2023-05-29T04:40:53;100778.06;;;19.26;80.58
54556;BME280;57291;37.520;15.106;2023-05-29T04:43:25;100761.81;;;19.36;80.01
54556;BME280;57291;37.520;15.106;2023-05-29T04:46:02;100769.09;;;19.44;79.28
54556;BME280;57291;37.520;15.106;2023-05-29T04:48:33;100769.03;;;19.57;79.41
54556;BME280;57291;37.520;15.106;2023-05-29T04:51:01;100768.97;;;19.69;79.48
54556;BME280;57291;37.520;15.106;2023-05-29T04:53:29;100778.50;;;19.72;78.28
54556;BME280;57291;37.520;15.106;2023-05-29T04:56:02;100773.78;;;19.72;78.72
54556;BME280;57291;37.520;15.106;2023-05-29T04:58:29;100782.84;;;19.73;79.35
54556;BME280;57291;37.520;15.106;2023-05-29T05:00:57;100781.06;;;19.80;79.57
54556;BME280;57291;37.520;15.106;2023-05-29T05:03:32;100787.03;;;19.98;79.22
54556;BME280;57291;37.520;15.106;2023-05-29T05:06:02;100792.25;;;20.03;78.78
54556;BME280;57291;37.520;15.106;2023-05-29T05:08:30;100785.47;;;20.17;78.54
54556;BME280;57291;37.520;15.106;2023-05-29T05:11:00;100795.06;;;20.38;78.07
54556;BME280;57291;37.520;15.106;2023-05-29T05:13:34;100789.88;;;20.53;77.07
54556;BME280;57291;37.520;15.106;2023-05-29T05:16:01;100782.03;;;20.55;76.31
54556;BME280;57291;37.520;15.106;2023-05-29T05:18:30;100789.47;;;20.70;76.45
54556;BME280;57291;37.520;15.106;2023-05-29T05:21:01;100794.50;;;20.84;76.60
54556;BME280;57291;37.520;15.106;2023-05-29T05:23:32;100789.09;;;20.91;76.71
54556;BME280;57291;37.520;15.106;2023-05-29T05:26:19;100800.59;;;21.13;75.47
54556;BME280;57291;37.520;15.106;2023-05-29T05:28:47;100800.41;;;21.44;75.48
54556;BME280;57291;37.520;15.106;2023-05-29T05:31:14;100799.50;;;21.83;72.85
54556;BME280;57291;37.520;15.106;2023-05-29T05:33:42;100804.97;;;22.02;72.59
54556;BME280;57291;37.520;15.106;2023-05-29T05:36:09;100806.13;;;22.01;72.62
54556;BME280;57291;37.520;15.106;2023-05-29T05:38:39;100802.56;;;21.77;74.51
54556;BME280;57291;37.520;15.106;2023-05-29T05:41:06;100811.53;;;21.48;77.96
54556;BME280;57291;37.520;15.106;2023-05-29T05:43:35;100812.97;;;20.99;79.55
54556;BME280;57291;37.520;15.106;2023-05-29T05:46:26;100813.53;;;20.89;79.53
54556;BME280;57291;37.520;15.106;2023-05-29T05:48:54;100823.34;;;20.87;80.71
54556;BME280;57291;37.520;15.106;2023-05-29T05:51:25;100820.16;;;21.43;80.79
54556;BME280;57291;37.520;15.106;2023-05-29T05:53:58;100819.38;;;22.38;76.04
54556;BME280;57291;37.520;15.106;2023-05-29T05:56:30;100827.06;;;23.46;72.13
54556;BME280;57291;37.520;15.106;2023-05-29T05:58:57;100829.41;;;24.25;67.33
54556;BME280;57291;37.520;15.106;2023-05-29T06:01:24;100840.09;;;24.89;64.82
54556;BME280;57291;37.520;15.106;2023-05-29T06:03:59;100844.25;;;25.24;63.16
54556;BME280;57291;37.520;15.106;2023-05-29T06:06:26;100843.88;;;25.40;61.73
54556;BME280;57291;37.520;15.106;2023-05-29T06:08:53;100842.31;;;25.57;60.41
54556;BME280;57291;37.520;15.106;2023-05-29T06:11:21;100838.03;;;25.84;59.19
54556;BME280;57291;37.520;15.106;2023-05-29T06:13:49;100839.59;;;26.21;56.99
54556;BME280;57291;37.520;15.106;2023-05-29T06:16:23;100835.56;;;26.47;56.34
54556;BME280;57291;37.520;15.106;2023-05-29T06:18:51;100844.34;;;26.46;56.81
54556;BME280;57291;37.520;15.106;2023-05-29T06:21:18;100854.22;;;26.89;55.20
54556;BME280;57291;37.520;15.106;2023-05-29T06:23:51;100841.94;;;26.69;55.76
54556;BME280;57291;37.520;15.106;2023-05-29T06:26:19;100848.88;;;27.24;54.96
54556;BME280;57291;37.520;15.106;2023-05-29T06:28:54;100849.66;;;27.31;54.13
54556;BME280;57291;37.520;15.106;2023-05-29T06:31:26;100850.44;;;27.35;55.05
54556;BME280;57291;37.520;15.106;2023-05-29T06:33:55;100847.25;;;27.33;54.34
54556;BME280;57291;37.520;15.106;2023-05-29T06:36:26;100850.16;;;27.16;54.43
54556;BME280;57291;37.520;15.106;2023-05-29T06:38:54;100848.56;;;27.04;55.09
54556;BME280;57291;37.520;15.106;2023-05-29T06:41:27;100846.59;;;26.97;54.63
54556;BME280;57291;37.520;15.106;2023-05-29T06:43:54;100845.06;;;26.89;54.93
54556;BME280;57291;37.520;15.106;2023-05-29T06:46:21;100853.75;;;27.02;55.14
54556;BME280;57291;37.520;15.106;2023-05-29T06:48:49;100847.72;;;27.10;54.30
54556;BME280;57291;37.520;15.106;2023-05-29T06:51:17;100849.00;;;26.99;53.84
54556;BME280;57291;37.520;15.106;2023-05-29T06:53:44;100845.81;;;26.93;52.54
54556;BME280;57291;37.520;15.106;2023-05-29T06:56:13;100845.53;;;26.55;54.52
54556;BME280;57291;37.520;15.106;2023-05-29T06:58:41;100853.84;;;26.73;54.41
54556;BME280;57291;37.520;15.106;2023-05-29T07:01:08;100849.06;;;26.74;54.53
54556;BME280;57291;37.520;15.106;2023-05-29T07:03:59;100859.09;;;26.53;54.38
54556;BME280;57291;37.520;15.106;2023-05-29T07:06:40;100854.69;;;26.45;54.09
54556;BME280;57291;37.520;15.106;2023-05-29T07:09:07;100862.66;;;26.39;54.63
54556;BME280;57291;37.520;15.106;2023-05-29T07:11:35;100857.06;;;26.61;52.74
54556;BME280;57291;37.520;15.106;2023-05-29T07:14:02;100858.22;;;26.74;52.56
54556;BME280;57291;37.520;15.106;2023-05-29T07:16:31;100859.00;;;26.85;51.71
54556;BME280;57291;37.520;15.106;2023-05-29T07:19:12;100855.78;;;26.94;51.65
54556;BME280;57291;37.520;15.106;2023-05-29T07:21:48;100853.06;;;26.62;49.04
54556;BME280;57291;37.520;15.106;2023-05-29T07:24:18;100862.22;;;26.73;49.17
54556;BME280;57291;37.520;15.106;2023-05-29T07:26:55;100857.78;;;26.90;48.07
54556;BME280;57291;37.520;15.106;2023-05-29T07:29:24;100862.19;;;26.80;48.21
54556;BME280;57291;37.520;15.106;2023-05-29T07:31:56;100854.59;;;26.88;49.07
54556;BME280;57291;37.520;15.106;2023-05-29T07:34:24;100855.03;;;26.83;49.92
54556;BME280;57291;37.520;15.106;2023-05-29T07:37:05;100861.41;;;26.80;48.54
54556;BME280;57291;37.520;15.106;2023-05-29T07:39:35;100856.69;;;26.62;48.47
54556;BME280;57291;37.520;15.106;2023-05-29T07:42:43;100861.84;;;26.35;48.77
54556;BME280;57291;37.520;15.106;2023-05-29T07:45:10;100858.28;;;26.35;49.72
54556;BME280;57291;37.520;15.106;2023-05-29T07:47:40;100865.06;;;26.23;49.63
54556;BME280;57291;37.520;15.106;2023-05-29T07:50:08;100859.09;;;26.50;48.52
54556;BME280;57291;37.520;15.106;2023-05-29T07:52:36;100857.09;;;26.32;50.52
54556;BME280;57291;37.520;15.106;2023-05-29T07:55:27;100853.13;;;26.19;50.73
54556;BME280;57291;37.520;15.106;2023-05-29T07:57:55;100852.72;;;26.28;51.04
54556;BME280;57291;37.520;15.106;2023-05-29T08:00:31;100853.13;;;26.30;50.80
54556;BME280;57291;37.520;15.106;2023-05-29T08:03:05;100856.69;;;26.48;50.16
54556;BME280;57291;37.520;15.106;2023-05-29T08:05:32;100857.50;;;26.31;50.61
54556;BME280;57291;37.520;15.106;2023-05-29T08:08:05;100858.28;;;25.95;51.22
54556;BME280;57291;37.520;15.106;2023-05-29T08:10:36;100860.97;;;25.38;52.74
54556;BME280;57291;37.520;15.106;2023-05-29T08:13:03;100862.00;;;25.01;54.32
54556;BME280;57291;37.520;15.106;2023-05-29T08:15:35;100861.16;;;24.94;54.15
54556;BME280;57291;37.520;15.106;2023-05-29T08:18:03;100852.97;;;25.19;54.82
54556;BME280;57291;37.520;15.106;2023-05-29T08:20:30;100852.97;;;25.26;53.89
54556;BME280;57291;37.520;15.106;2023-05-29T08:22:57;100857.75;;;25.22;56.16
54556;BME280;57291;37.520;15.106;2023-05-29T08:25:35;100852.97;;;25.19;56.59
54556;BME280;57291;37.520;15.106;2023-05-29T08:28:10;100853.78;;;25.30;55.81
54556;BME280;57291;37.520;15.106;2023-05-29T08:30:43;100848.88;;;24.98;56.50
54556;BME280;57291;37.520;15.106;2023-05-29T08:33:10;100859.53;;;24.86;55.56
54556;BME280;57291;37.520;15.106;2023-05-29T08:35:47;100856.34;;;24.80;57.18
54556;BME280;57291;37.520;15.106;2023-05-29T08:38:14;100862.03;;;24.39;57.74
54556;BME280;57291;37.520;15.106;2023-05-29T08:40:42;100861.78;;;24.10;60.63
54556;BME280;57291;37.520;15.106;2023-05-29T08:43:16;100865.44;;;23.74;61.97
54556;BME280;57291;37.520;15.106;2023-05-29T08:45:54;100868.75;;;23.19;64.79
54556;BME280;57291;37.520;15.106;2023-05-29T08:48:23;100861.06;;;23.05;66.68
54556;BME280;57291;37.520;15.106;2023-05-29T08:50:53;100863.91;;;23.09;67.49
54556;BME280;57291;37.520;15.106;2023-05-29T08:53:25;100867.78;;;23.34;67.34
54556;BME280;57291;37.520;15.106;2023-05-29T08:55:55;100858.94;;;23.62;63.91
54556;BME280;57291;37.520;15.106;2023-05-29T08:58:24;100868.09;;;24.04;63.07
54556;BME280;57291;37.520;15.106;2023-05-29T09:01:17;100863.22;;;23.90;63.01
54556;BME280;57291;37.520;15.106;2023-05-29T09:03:44;100870.03;;;23.62;63.93
54556;BME280;57291;37.520;15.106;2023-05-29T09:06:12;100870.88;;;23.29;65.82
54556;BME280;57291;37.520;15.106;2023-05-29T09:08:39;100868.97;;;22.77;67.00
54556;BME280;57291;37.520;15.106;2023-05-29T09:11:07;100865.38;;;22.73;68.90
54556;BME280;57291;37.520;15.106;2023-05-29T09:13:40;100866.72;;;22.86;67.87
54556;BME280;57291;37.520;15.106;2023-05-29T09:16:08;100856.84;;;22.85;67.58
54556;BME280;57291;37.520;15.106;2023-05-29T09:18:36;100860.78;;;22.84;67.66
54556;BME280;57291;37.520;15.106;2023-05-29T09:21:07;100863.06;;;22.78;68.71
54556;BME280;57291;37.520;15.106;2023-05-29T09:23:37;100857.00;;;22.96;68.88
54556;BME280;57291;37.520;15.106;2023-05-29T09:26:14;100863.59;;;22.87;67.96
54556;BME280;57291;37.520;15.106;2023-05-29T09:28:57;100866.69;;;22.82;68.10
54556;BME280;57291;37.520;15.106;2023-05-29T09:31:24;100852.06;;;22.55;68.45
54556;BME280;57291;37.520;15.106;2023-05-29T09:33:52;100864.09;;;22.66;69.47
54556;BME280;57291;37.520;15.106;2023-05-29T09:36:21;100864.13;;;22.70;68.42
54556;BME280;57291;37.520;15.106;2023-05-29T09:38:52;100860.41;;;22.85;69.07
54556;BME280;57291;37.520;15.106;2023-05-29T09:41:43;100859.41;;;22.97;68.69
54556;BME280;57291;37.520;15.106;2023-05-29T09:44:32;100852.53;;;23.17;68.53
54556;BME280;57291;37.520;15.106;2023-05-29T09:47:00;100854.25;;;22.99;67.13
54556;BME280;57291;37.520;15.106;2023-05-29T09:49:27;100859.91;;;22.80;67.47
54556;BME280;57291;37.520;15.106;2023-05-29T09:52:13;100852.28;;;23.00;69.11
54556;BME280;57291;37.520;15.106;2023-05-29T09:54:51;100849.25;;;23.08;68.44
54556;BME280;57291;37.520;15.106;2023-05-29T09:57:21;100852.44;;;23.10;68.46
54556;BME280;57291;37.520;15.106;2023-05-29T09:59:52;100858.69;;;23.37;67.59
54556;BME280;57291;37.520;15.106;2023-05-29T10:02:37;100850.59;;;23.22;67.64
54556;BME280;57291;37.520;15.106;2023-05-29T10:05:08;100850.44;;;23.07;66.46
54556;BME280;57291;37.520;15.106;2023-05-29T10:07:37;100848.31;;;23.31;68.05
54556;BME280;57291;37.520;15.106;2023-05-29T10:10:05;100842.34;;;23.66;66.16
54556;BME280;57291;37.520;15.106;2023-05-29T10:12:49;100855.69;;;23.91;63.92
54556;BME280;57291;37.520;15.106;2023-05-29T10:15:18;100848.91;;;23.88;62.68
54556;BME280;57291;37.520;15.106;2023-05-29T10:18:05;100860.38;;;23.83;61.39
54556;BME280;57291;37.520;15.106;2023-05-29T10:20:37;100857.19;;;23.81;62.33
54556;BME280;57291;37.520;15.106;2023-05-29T10:23:06;100860.81;;;23.88;61.95
54556;BME280;57291;37.520;15.106;2023-05-29T10:25:39;100860.97;;;24.06;62.74
54556;BME280;57291;37.520;15.106;2023-05-29T10:28:08;100860.22;;;24.09;61.53
54556;BME280;57291;37.520;15.106;2023-05-29T10:30:54;100859.47;;;24.16;62.46
54556;BME280;57291;37.520;15.106;2023-05-29T10:36:23;100859.38;;;24.05;61.74
54556;BME280;57291;37.520;15.106;2023-05-29T10:38:54;100851.13;;;24.16;61.13
54556;BME280;57291;37.520;15.106;2023-05-29T10:49:35;100850.28;;;24.64;60.57
54556;BME280;57291;37.520;15.106;2023-05-29T10:52:10;100853.25;;;24.37;60.73
54556;BME280;57291;37.520;15.106;2023-05-29T10:54:50;100856.28;;;24.18;61.70
54556;BME280;57291;37.520;15.106;2023-05-29T10:57:20;100859.53;;;23.79;61.92
54556;BME280;57291;37.520;15.106;2023-05-29T11:00:09;100858.81;;;23.48;63.30
54556;BME280;57291;37.520;15.106;2023-05-29T11:02:47;100863.22;;;23.19;64.64
54556;BME280;57291;37.520;15.106;2023-05-29T11:05:24;100864.16;;;23.30;64.30
54556;BME280;57291;37.520;15.106;2023-05-29T11:07:59;100866.03;;;23.56;63.01
54556;BME280;57291;37.520;15.106;2023-05-29T11:19:06;100853.50;;;23.70;63.48
54556;BME280;57291;37.520;15.106;2023-05-29T11:24:28;100857.03;;;23.67;62.99
54556;BME280;57291;37.520;15.106;2023-05-29T11:26:57;100852.50;;;23.92;63.02
54556;BME280;57291;37.520;15.106;2023-05-29T11:29:48;100851.50;;;24.15;61.32
54556;BME280;57291;37.520;15.106;2023-05-29T11:32:16;100843.91;;;24.04;62.94
54556;BME280;57291;37.520;15.106;2023-05-29T11:34:45;100845.28;;;23.80;63.07
54556;BME280;57291;37.520;15.106;2023-05-29T11:37:13;100839.44;;;23.89;63.63
54556;BME280;57291;37.520;15.106;2023-05-29T11:39:43;100836.28;;;23.94;63.52
54556;BME280;57291;37.520;15.106;2023-05-29T11:42:12;100831.56;;;24.02;63.97
54556;BME280;57291;37.520;15.106;2023-05-29T11:44:39;100832.03;;;24.07;63.90
54556;BME280;57291;37.520;15.106;2023-05-29T11:47:09;100827.59;;;23.99;63.90
54556;BME280;57291;37.520;15.106;2023-05-29T11:49:53;100826.59;;;23.74;64.51
54556;BME280;57291;37.520;15.106;2023-05-29T11:52:20;100821.88;;;23.78;64.33
54556;BME280;57291;37.520;15.106;2023-05-29T11:54:49;100830.38;;;23.58;65.44
54556;BME280;57291;37.520;15.106;2023-05-29T11:57:18;100826.06;;;23.64;66.40
54556;BME280;57291;37.520;15.106;2023-05-29T11:59:50;100827.38;;;23.74;64.85
54556;BME280;57291;37.520;15.106;2023-05-29T12:02:44;100810.94;;;23.58;63.99
54556;BME280;57291;37.520;15.106;2023-05-29T12:05:15;100810.63;;;23.63;66.02
54556;BME280;57291;37.520;15.106;2023-05-29T12:07:52;100813.56;;;23.81;65.05
54556;BME280;57291;37.520;15.106;2023-05-29T12:10:34;100808.44;;;23.83;64.63
54556;BME280;57291;37.520;15.106;2023-05-29T12:13:01;100816.44;;;23.92;64.88
54556;BME280;57291;37.520;15.106;2023-05-29T12:15:28;100809.25;;;23.87;65.61
54556;BME280;57291;37.520;15.106;2023-05-29T12:18:01;100813.16;;;23.76;65.31
54556;BME280;57291;37.520;15.106;2023-05-29T12:20:39;100810.44;;;23.46;66.21
54556;BME280;57291;37.520;15.106;2023-05-29T12:23:20;100810.31;;;23.35;67.20
54556;BME280;57291;37.520;15.106;2023-05-29T12:25:52;100820.09;;;23.22;67.96
54556;BME280;57291;37.520;15.106;2023-05-29T12:28:52;100831.44;;;23.09;68.54
54556;BME280;57291;37.520;15.106;2023-05-29T12:31:28;100829.84;;;23.08;68.76
54556;BME280;57291;37.520;15.106;2023-05-29T12:34:08;100821.75;;;22.96;68.61
54556;BME280;57291;37.520;15.106;2023-05-29T12:36:35;100829.44;;;22.80;69.25
54556;BME280;57291;37.520;15.106;2023-05-29T12:39:07;100827.91;;;22.82;70.47
54556;BME280;57291;37.520;15.106;2023-05-29T12:41:54;100827.81;;;22.75;71.19
54556;BME280;57291;37.520;15.106;2023-05-29T12:44:33;100833.44;;;22.82;71.55
54556;BME280;57291;37.520;15.106;2023-05-29T12:47:00;100837.34;;;22.78;70.41
54556;BME280;57291;37.520;15.106;2023-05-29T12:49:44;100835.44;;;22.55;70.75
54556;BME280;57291;37.520;15.106;2023-05-29T12:52:12;100839.56;;;22.38;71.60
54556;BME280;57291;37.520;15.106;2023-05-29T12:54:39;100837.69;;;22.46;71.67
54556;BME280;57291;37.520;15.106;2023-05-29T12:57:10;100838.38;;;22.66;71.14
54556;BME280;57291;37.520;15.106;2023-05-29T12:59:37;100840.53;;;22.80;70.27
54556;BME280;57291;37.520;15.106;2023-05-29T13:02:05;100839.81;;;22.86;70.39
54556;BME280;57291;37.520;15.106;2023-05-29T13:04:34;100835.22;;;22.94;70.57
54556;BME280;57291;37.520;15.106;2023-05-29T13:07:02;100837.75;;;22.80;69.34
54556;BME280;57291;37.520;15.106;2023-05-29T13:09:35;100838.41;;;22.69;70.82
54556;BME280;57291;37.520;15.106;2023-05-29T13:12:02;100839.59;;;22.68;71.00
54556;BME280;57291;37.520;15.106;2023-05-29T13:14:53;100833.25;;;22.68;71.19
54556;BME280;57291;37.520;15.106;2023-05-29T13:17:32;100843.28;;;22.50;71.87
54556;BME280;57291;37.520;15.106;2023-05-29T13:20:10;100842.78;;;22.44;72.51
54556;BME280;57291;37.520;15.106;2023-05-29T13:22:43;100836.00;;;22.38;72.98
54556;BME280;57291;37.520;15.106;2023-05-29T13:25:20;100840.72;;;22.37;73.75
54556;BME280;57291;37.520;15.106;2023-05-29T13:27:48;100839.38;;;22.28;74.43
54556;BME280;57291;37.520;15.106;2023-05-29T13:30:16;100838.72;;;22.11;75.38